sensor_id;sensor_type;location;lat;lon;timestamp;pressure;altitude;pressure_sealevel;temperature;humidity
6090;BME280;3073;42.660;23.316;2023-07-28T00:01:16;94622.81;;;24.48;45.00
6090;BME280;3073;42.660;23.316;2023-07-28T00:03:43;94615.56;;;24.33;45.16
6090;BME280;3073;42.660;23.316;2023-07-28T00:06:10;94615.53;;;24.13;45.57
6090;BME280;3073;42.660;23.316;2023-07-28T00:08:37;94614.25;;;24.19;45.49
6090;BME280;3073;42.660;23.316;2023-07-28T00:11:09;94614.84;;;23.74;46.84
6090;BME280;3073;42.660;23.316;2023-07-28T00:13:37;94612.72;;;23.97;46.73
6090;BME280;3073;42.660;23.316;2023-07-28T00:16:05;94613.47;;;23.97;46.87
6090;BME280;3073;42.660;23.316;2023-07-28T00:18:33;94613.53;;;24.09;47.01
6090;BME280;3073;42.660;23.316;2023-07-28T00:21:01;94615.75;;;23.99;47.31
6090;BME280;3073;42.660;23.316;2023-07-28T00:23:29;94612.84;;;24.00;47.07
6090;BME280;3073;42.660;23.316;2023-07-28T00:25:56;94611.22;;;24.17;46.91
6090;BME280;3073;42.660;23.316;2023-07-28T00:28:22;94608.53;;;24.04;46.99
6090;BME280;3073;42.660;23.316;2023-07-28T00:30:49;94606.06;;;24.08;46.94
6090;BME280;3073;42.660;23.316;2023-07-28T00:33:17;94603.50;;;23.99;47.03
6090;BME280;3073;42.660;23.316;2023-07-28T00:35:45;94605.19;;;23.95;47.32
6090;BME280;3073;42.660;23.316;2023-07-28T00:38:12;94599.47;;;23.81;47.53
6090;BME280;3073;42.660;23.316;2023-07-28T00:40:38;94621.84;;;23.82;47.64
6090;BME280;3073;42.660;23.316;2023-07-28T00:43:05;94618.28;;;23.87;47.49
6090;BME280;3073;42.660;23.316;2023-07-28T00:45:33;94613.91;;;22.94;49.16
6090;BME280;3073;42.660;23.316;2023-07-28T00:48:00;94615.75;;;22.94;49.49
6090;BME280;3073;42.660;23.316;2023-07-28T00:50:28;94620.81;;;22.56;49.89
6090;BME280;3073;42.660;23.316;2023-07-28T00:52:57;94610.34;;;23.07;49.53
6090;BME280;3073;42.660;23.316;2023-07-28T00:55:24;94606.78;;;23.21;49.18
6090;BME280;3073;42.660;23.316;2023-07-28T00:57:50;94609.63;;;22.90;49.36
6090;BME280;3073;42.660;23.316;2023-07-28T01:00:17;94606.09;;;22.94;49.34
6090;BME280;3073;42.660;23.316;2023-07-28T01:02:45;94612.09;;;22.95;49.86
6090;BME280;3073;42.660;23.316;2023-07-28T01:05:11;94614.53;;;22.91;49.73
6090;BME280;3073;42.660;23.316;2023-07-28T01:07:44;94613.44;;;23.01;49.53
6090;BME280;3073;42.660;23.316;2023-07-28T01:10:17;94610.84;;;22.92;49.82
6090;BME280;3073;42.660;23.316;2023-07-28T01:12:45;94609.97;;;22.88;49.81
6090;BME280;3073;42.660;23.316;2023-07-28T01:15:11;94615.91;;;22.97;49.66
6090;BME280;3073;42.660;23.316;2023-07-28T01:17:40;94615.59;;;22.90;49.77
6090;BME280;3073;42.660;23.316;2023-07-28T01:20:07;94615.53;;;23.16;49.25
6090;BME280;3073;42.660;23.316;2023-07-28T01:22:47;94617.88;;;23.00;49.74
6090;BME280;3073;42.660;23.316;2023-07-28T01:25:21;94617.22;;;23.12;49.41
6090;BME280;3073;42.660;23.316;2023-07-28T01:27:53;94611.16;;;22.82;50.09
6090;BME280;3073;42.660;23.316;2023-07-28T01:30:21;94609.81;;;22.42;50.64
6090;BME280;3073;42.660;23.316;2023-07-28T01:32:53;94613.19;;;22.77;49.95
6090;BME280;3073;42.660;23.316;2023-07-28T01:35:20;94613.28;;;22.97;49.42
6090;BME280;3073;42.660;23.316;2023-07-28T01:37:47;94608.38;;;23.04;49.48
6090;BME280;3073;42.660;23.316;2023-07-28T01:40:16;94613.44;;;22.92;49.57
6090;BME280;3073;42.660;23.316;2023-07-28T01:42:43;94611.16;;;22.82;49.68
6090;BME280;3073;42.660;23.316;2023-07-28T01:45:11;94611.34;;;22.60;50.56
6090;BME280;3073;42.660;23.316;2023-07-28T01:47:38;94608.31;;;22.41;50.69
6090;BME280;3073;42.660;23.316;2023-07-28T01:50:07;94606.16;;;22.51;50.62
6090;BME280;3073;42.660;23.316;2023-07-28T01:52:34;94607.06;;;22.64;50.33
6090;BME280;3073;42.660;23.316;2023-07-28T01:55:01;94620.06;;;22.64;50.25
6090;BME280;3073;42.660;23.316;2023-07-28T01:57:28;94608.13;;;22.46;50.22
6090;BME280;3073;42.660;23.316;2023-07-28T01:59:54;94614.44;;;22.45;50.57
6090;BME280;3073;42.660;23.316;2023-07-28T02:02:23;94621.31;;;22.41;50.89
6090;BME280;3073;42.660;23.316;2023-07-28T02:04:49;94617.31;;;22.43;50.75
6090;BME280;3073;42.660;23.316;2023-07-28T02:07:16;94616.25;;;22.36;50.71
6090;BME280;3073;42.660;23.316;2023-07-28T02:09:43;94608.44;;;22.53;50.46
6090;BME280;3073;42.660;23.316;2023-07-28T02:12:10;94614.41;;;22.36;50.44
6090;BME280;3073;42.660;23.316;2023-07-28T02:14:37;94609.06;;;22.16;51.12
6090;BME280;3073;42.660;23.316;2023-07-28T02:17:04;94613.91;;;21.35;52.98
6090;BME280;3073;42.660;23.316;2023-07-28T02:19:32;94612.53;;;21.06;54.23
6090;BME280;3073;42.660;23.316;2023-07-28T02:21:59;94610.78;;;20.93;54.77
6090;BME280;3073;42.660;23.316;2023-07-28T02:24:26;94620.59;;;21.05;54.55
6090;BME280;3073;42.660;23.316;2023-07-28T02:26:53;94623.91;;;20.44;55.97
6090;BME280;3073;42.660;23.316;2023-07-28T02:29:20;94619.81;;;20.51;55.93
6090;BME280;3073;42.660;23.316;2023-07-28T02:31:47;94622.00;;;20.80;55.32
6090;BME280;3073;42.660;23.316;2023-07-28T02:34:13;94617.16;;;20.65;55.94
6090;BME280;3073;42.660;23.316;2023-07-28T02:36:42;94624.13;;;20.56;56.14
6090;BME280;3073;42.660;23.316;2023-07-28T02:39:09;94617.00;;;20.84;55.18
6090;BME280;3073;42.660;23.316;2023-07-28T02:41:36;94620.44;;;21.01;54.68
6090;BME280;3073;42.660;23.316;2023-07-28T02:44:04;94613.34;;;20.63;55.70
6090;BME280;3073;42.660;23.316;2023-07-28T02:46:30;94620.34;;;20.40;56.57
6090;BME280;3073;42.660;23.316;2023-07-28T02:48:57;94615.19;;;20.26;56.96
6090;BME280;3073;42.660;23.316;2023-07-28T02:51:24;94620.22;;;20.89;55.39
6090;BME280;3073;42.660;23.316;2023-07-28T02:53:52;94626.97;;;20.99;54.90
6090;BME280;3073;42.660;23.316;2023-07-28T02:56:19;94617.78;;;21.15;54.08
6090;BME280;3073;42.660;23.316;2023-07-28T02:58:48;94612.25;;;21.08;54.49
6090;BME280;3073;42.660;23.316;2023-07-28T03:01:14;94609.19;;;21.37;53.56
6090;BME280;3073;42.660;23.316;2023-07-28T03:03:41;94616.78;;;21.25;53.82
6090;BME280;3073;42.660;23.316;2023-07-28T03:06:08;94616.81;;;21.42;53.20
6090;BME280;3073;42.660;23.316;2023-07-28T03:08:35;94616.97;;;21.37;53.44
6090;BME280;3073;42.660;23.316;2023-07-28T03:11:03;94618.25;;;21.56;52.70
6090;BME280;3073;42.660;23.316;2023-07-28T03:13:30;94622.59;;;21.39;52.99
6090;BME280;3073;42.660;23.316;2023-07-28T03:15:57;94621.44;;;21.53;52.61
6090;BME280;3073;42.660;23.316;2023-07-28T03:18:24;94623.28;;;21.53;52.69
6090;BME280;3073;42.660;23.316;2023-07-28T03:20:52;94626.03;;;21.56;52.40
6090;BME280;3073;42.660;23.316;2023-07-28T03:23:20;94620.56;;;21.75;51.82
6090;BME280;3073;42.660;23.316;2023-07-28T03:25:47;94630.19;;;21.58;52.03
6090;BME280;3073;42.660;23.316;2023-07-28T03:28:15;94628.88;;;21.38;52.59
6090;BME280;3073;42.660;23.316;2023-07-28T03:30:42;94634.63;;;21.26;53.10
6090;BME280;3073;42.660;23.316;2023-07-28T03:33:09;94637.06;;;21.00;53.47
6090;BME280;3073;42.660;23.316;2023-07-28T03:35:36;94633.06;;;20.94;53.64
6090;BME280;3073;42.660;23.316;2023-07-28T03:38:04;94638.88;;;20.91;53.72
6090;BME280;3073;42.660;23.316;2023-07-28T03:40:31;94642.97;;;21.15;53.31
6090;BME280;3073;42.660;23.316;2023-07-28T03:42:58;94640.97;;;21.12;53.67
6090;BME280;3073;42.660;23.316;2023-07-28T03:45:27;94641.78;;;21.21;53.21
6090;BME280;3073;42.660;23.316;2023-07-28T03:47:53;94644.72;;;21.05;53.64
6090;BME280;3073;42.660;23.316;2023-07-28T03:50:20;94644.78;;;20.92;53.98
6090;BME280;3073;42.660;23.316;2023-07-28T03:52:49;94645.81;;;21.04;53.84
6090;BME280;3073;42.660;23.316;2023-07-28T03:55:16;94641.19;;;21.24;53.24
6090;BME280;3073;42.660;23.316;2023-07-28T03:57:43;94641.66;;;21.26;53.22
6090;BME280;3073;42.660;23.316;2023-07-28T04:00:11;94637.06;;;21.23;53.56
6090;BME280;3073;42.660;23.316;2023-07-28T04:02:40;94638.94;;;20.78;54.66
6090;BME280;3073;42.660;23.316;2023-07-28T04:05:07;94638.03;;;20.60;55.03
6090;BME280;3073;42.660;23.316;2023-07-28T04:07:34;94640.22;;;20.44;55.73
6090;BME280;3073;42.660;23.316;2023-07-28T04:10:01;94652.44;;;20.30;56.63
6090;BME280;3073;42.660;23.316;2023-07-28T04:12:29;94648.09;;;20.26;56.92
6090;BME280;3073;42.660;23.316;2023-07-28T04:15:05;94650.88;;;20.43;56.61
6090;BME280;3073;42.660;23.316;2023-07-28T04:17:32;94643.69;;;20.62;56.18
6090;BME280;3073;42.660;23.316;2023-07-28T04:20:00;94647.19;;;20.58;56.33
6090;BME280;3073;42.660;23.316;2023-07-28T04:22:27;94642.16;;;20.83;55.42
6090;BME280;3073;42.660;23.316;2023-07-28T04:24:54;94647.09;;;20.93;55.46
6090;BME280;3073;42.660;23.316;2023-07-28T04:27:21;94652.88;;;20.90;55.24
6090;BME280;3073;42.660;23.316;2023-07-28T04:29:48;94651.06;;;21.13;54.26
6090;BME280;3073;42.660;23.316;2023-07-28T04:32:15;94656.63;;;21.06;54.60
6090;BME280;3073;42.660;23.316;2023-07-28T04:34:41;94656.03;;;21.71;53.25
6090;BME280;3073;42.660;23.316;2023-07-28T04:37:09;94653.28;;;21.76;53.23
6090;BME280;3073;42.660;23.316;2023-07-28T04:39:36;94653.78;;;21.78;52.90
6090;BME280;3073;42.660;23.316;2023-07-28T04:42:03;94654.28;;;21.49;53.32
6090;BME280;3073;42.660;23.316;2023-07-28T04:44:30;94651.28;;;21.73;53.30
6090;BME280;3073;42.660;23.316;2023-07-28T04:46:57;94653.38;;;21.54;53.49
6090;BME280;3073;42.660;23.316;2023-07-28T04:49:24;94657.03;;;21.53;53.73
6090;BME280;3073;42.660;23.316;2023-07-28T04:51:51;94649.13;;;22.15;52.71
6090;BME280;3073;42.660;23.316;2023-07-28T04:54:19;94652.44;;;21.50;53.32
6090;BME280;3073;42.660;23.316;2023-07-28T04:56:46;94653.97;;;21.90;52.50
6090;BME280;3073;42.660;23.316;2023-07-28T04:59:15;94652.19;;;22.34;51.67
6090;BME280;3073;42.660;23.316;2023-07-28T05:01:42;94650.06;;;22.70;50.92
6090;BME280;3073;42.660;23.316;2023-07-28T05:04:08;94654.63;;;22.82;50.74
6090;BME280;3073;42.660;23.316;2023-07-28T05:06:35;94654.00;;;23.02;50.61
6090;BME280;3073;42.660;23.316;2023-07-28T05:09:02;94662.44;;;22.82;50.52
6090;BME280;3073;42.660;23.316;2023-07-28T05:11:29;94659.06;;;22.98;50.42
6090;BME280;3073;42.660;23.316;2023-07-28T05:13:57;94657.38;;;22.85;50.00
6090;BME280;3073;42.660;23.316;2023-07-28T05:16:23;94656.69;;;23.23;49.76
6090;BME280;3073;42.660;23.316;2023-07-28T05:18:50;94652.53;;;23.47;49.66
6090;BME280;3073;42.660;23.316;2023-07-28T05:21:17;94656.25;;;23.21;49.53
6090;BME280;3073;42.660;23.316;2023-07-28T05:23:44;94651.69;;;23.64;49.06
6090;BME280;3073;42.660;23.316;2023-07-28T05:26:11;94654.38;;;23.47;49.34
6090;BME280;3073;42.660;23.316;2023-07-28T05:28:40;94656.47;;;23.53;49.62
6090;BME280;3073;42.660;23.316;2023-07-28T05:31:07;94653.22;;;23.10;49.54
6090;BME280;3073;42.660;23.316;2023-07-28T05:33:38;94654.22;;;23.35;48.63
6090;BME280;3073;42.660;23.316;2023-07-28T05:36:05;94657.31;;;23.28;49.33
6090;BME280;3073;42.660;23.316;2023-07-28T05:38:32;94659.38;;;23.52;48.80
6090;BME280;3073;42.660;23.316;2023-07-28T05:41:01;94653.53;;;23.93;48.16
6090;BME280;3073;42.660;23.316;2023-07-28T05:43:28;94648.91;;;23.98;48.11
6090;BME280;3073;42.660;23.316;2023-07-28T05:45:58;94645.81;;;24.26;47.57
6090;BME280;3073;42.660;23.316;2023-07-28T05:48:25;94644.94;;;23.63;48.75
6090;BME280;3073;42.660;23.316;2023-07-28T05:50:52;94643.94;;;24.05;47.84
6090;BME280;3073;42.660;23.316;2023-07-28T05:53:19;94642.31;;;23.72;48.55
6090;BME280;3073;42.660;23.316;2023-07-28T05:55:46;94641.34;;;23.76;48.28
6090;BME280;3073;42.660;23.316;2023-07-28T05:58:13;94637.69;;;24.27;47.82
6090;BME280;3073;42.660;23.316;2023-07-28T06:00:39;94636.72;;;25.06;46.49
6090;BME280;3073;42.660;23.316;2023-07-28T06:03:09;94637.28;;;25.12;45.46
6090;BME280;3073;42.660;23.316;2023-07-28T06:05:38;94640.72;;;26.49;44.00
6090;BME280;3073;42.660;23.316;2023-07-28T06:08:05;94633.66;;;27.21;41.86
6090;BME280;3073;42.660;23.316;2023-07-28T06:10:32;94623.00;;;27.92;40.59
6090;BME280;3073;42.660;23.316;2023-07-28T06:12:59;94629.69;;;28.78;38.57
6090;BME280;3073;42.660;23.316;2023-07-28T06:15:26;94636.34;;;28.37;39.13
6090;BME280;3073;42.660;23.316;2023-07-28T06:17:54;94631.69;;;28.11;38.87
6090;BME280;3073;42.660;23.316;2023-07-28T06:20:23;94626.97;;;29.17;38.40
6090;BME280;3073;42.660;23.316;2023-07-28T06:22:51;94630.91;;;29.72;37.24
6090;BME280;3073;42.660;23.316;2023-07-28T06:25:18;94631.75;;;30.32;36.26
6090;BME280;3073;42.660;23.316;2023-07-28T06:27:44;94633.94;;;30.00;35.70
6090;BME280;3073;42.660;23.316;2023-07-28T06:30:14;94620.81;;;28.86;37.38
6090;BME280;3073;42.660;23.316;2023-07-28T06:32:41;94623.19;;;29.59;37.15
6090;BME280;3073;42.660;23.316;2023-07-28T06:35:08;94628.19;;;30.47;36.11
6090;BME280;3073;42.660;23.316;2023-07-28T06:37:36;94620.69;;;30.49;36.16
6090;BME280;3073;42.660;23.316;2023-07-28T06:40:05;94630.28;;;31.38;35.24
6090;BME280;3073;42.660;23.316;2023-07-28T06:42:34;94628.75;;;31.81;34.10
6090;BME280;3073;42.660;23.316;2023-07-28T06:45:01;94625.56;;;31.57;34.87
6090;BME280;3073;42.660;23.316;2023-07-28T06:47:28;94627.53;;;31.27;34.67
6090;BME280;3073;42.660;23.316;2023-07-28T06:49:55;94633.56;;;30.28;35.04
6090;BME280;3073;42.660;23.316;2023-07-28T06:52:22;94633.25;;;30.33;35.09
6090;BME280;3073;42.660;23.316;2023-07-28T06:54:50;94632.03;;;31.23;34.37
6090;BME280;3073;42.660;23.316;2023-07-28T06:57:18;94631.81;;;31.93;33.96
6090;BME280;3073;42.660;23.316;2023-07-28T06:59:45;94637.53;;;32.68;33.09
6090;BME280;3073;42.660;23.316;2023-07-28T07:02:12;94631.56;;;32.88;32.37
6090;BME280;3073;42.660;23.316;2023-07-28T07:04:39;94628.34;;;31.79;32.78
6090;BME280;3073;42.660;23.316;2023-07-28T07:07:06;94631.13;;;32.03;32.08
6090;BME280;3073;42.660;23.316;2023-07-28T07:09:32;94632.94;;;31.89;32.62
6090;BME280;3073;42.660;23.316;2023-07-28T07:12:01;94627.91;;;31.73;32.80
6090;BME280;3073;42.660;23.316;2023-07-28T07:14:28;94627.63;;;31.38;32.81
6090;BME280;3073;42.660;23.316;2023-07-28T07:16:55;94628.69;;;31.74;32.64
6090;BME280;3073;42.660;23.316;2023-07-28T07:19:22;94625.84;;;32.72;32.27
6090;BME280;3073;42.660;23.316;2023-07-28T07:21:49;94631.25;;;33.18;31.43
6090;BME280;3073;42.660;23.316;2023-07-28T07:24:17;94626.00;;;33.29;31.59
6090;BME280;3073;42.660;23.316;2023-07-28T07:26:44;94633.19;;;33.81;31.17
6090;BME280;3073;42.660;23.316;2023-07-28T07:29:12;94626.72;;;33.96;31.07
6090;BME280;3073;42.660;23.316;2023-07-28T07:31:39;94630.00;;;34.50;30.29
6090;BME280;3073;42.660;23.316;2023-07-28T07:34:06;94643.63;;;35.32;29.26
6090;BME280;3073;42.660;23.316;2023-07-28T07:36:33;94641.41;;;33.02;31.03
6090;BME280;3073;42.660;23.316;2023-07-28T07:39:00;94636.41;;;32.69;30.89
6090;BME280;3073;42.660;23.316;2023-07-28T07:41:27;94639.31;;;32.49;32.10
6090;BME280;3073;42.660;23.316;2023-07-28T07:43:56;94642.13;;;32.05;31.77
6090;BME280;3073;42.660;23.316;2023-07-28T07:46:24;94640.94;;;32.68;31.23
6090;BME280;3073;42.660;23.316;2023-07-28T07:48:51;94642.63;;;32.25;31.96
6090;BME280;3073;42.660;23.316;2023-07-28T07:51:18;94645.53;;;32.09;32.46
6090;BME280;3073;42.660;23.316;2023-07-28T07:53:45;94641.06;;;32.21;32.71
6090;BME280;3073;42.660;23.316;2023-07-28T07:56:12;94641.47;;;33.23;31.13
6090;BME280;3073;42.660;23.316;2023-07-28T07:58:38;94640.72;;;34.04;30.51
6090;BME280;3073;42.660;23.316;2023-07-28T08:01:05;94641.34;;;34.54;30.32
6090;BME280;3073;42.660;23.316;2023-07-28T08:03:34;94638.13;;;33.72;30.67
6090;BME280;3073;42.660;23.316;2023-07-28T08:06:01;94644.91;;;33.45;30.83
6090;BME280;3073;42.660;23.316;2023-07-28T08:08:28;94641.13;;;35.10;29.75
6090;BME280;3073;42.660;23.316;2023-07-28T08:10:56;94629.97;;;32.59;31.26
6090;BME280;3073;42.660;23.316;2023-07-28T08:13:24;94634.72;;;33.61;30.90
6090;BME280;3073;42.660;23.316;2023-07-28T08:15:50;94640.34;;;34.12;30.09
6090;BME280;3073;42.660;23.316;2023-07-28T08:18:18;94631.53;;;34.44;30.77
6090;BME280;3073;42.660;23.316;2023-07-28T08:20:46;94630.13;;;33.37;30.94
6090;BME280;3073;42.660;23.316;2023-07-28T08:23:13;94630.69;;;34.75;30.04
6090;BME280;3073;42.660;23.316;2023-07-28T08:25:39;94629.19;;;34.60;29.15
6090;BME280;3073;42.660;23.316;2023-07-28T08:28:06;94628.53;;;34.42;29.35
6090;BME280;3073;42.660;23.316;2023-07-28T08:30:33;94634.63;;;34.32;28.58
6090;BME280;3073;42.660;23.316;2023-07-28T08:33:00;94638.56;;;35.99;27.93
6090;BME280;3073;42.660;23.316;2023-07-28T08:35:27;94637.25;;;36.52;27.21
6090;BME280;3073;42.660;23.316;2023-07-28T08:37:55;94632.06;;;36.00;28.20
6090;BME280;3073;42.660;23.316;2023-07-28T08:40:26;94630.78;;;35.78;27.82
6090;BME280;3073;42.660;23.316;2023-07-28T08:42:53;94632.38;;;37.07;27.08
6090;BME280;3073;42.660;23.316;2023-07-28T08:45:21;94627.63;;;37.95;26.06
6090;BME280;3073;42.660;23.316;2023-07-28T08:47:49;94626.84;;;36.64;27.61
6090;BME280;3073;42.660;23.316;2023-07-28T08:50:16;94628.94;;;37.60;26.86
6090;BME280;3073;42.660;23.316;2023-07-28T08:52:43;94627.31;;;38.13;26.04
6090;BME280;3073;42.660;23.316;2023-07-28T08:55:11;94615.63;;;37.60;25.77
6090;BME280;3073;42.660;23.316;2023-07-28T08:57:38;94624.56;;;35.92;27.62
6090;BME280;3073;42.660;23.316;2023-07-28T09:00:11;94613.03;;;37.30;27.04
6090;BME280;3073;42.660;23.316;2023-07-28T09:02:40;94617.47;;;37.63;26.45
6090;BME280;3073;42.660;23.316;2023-07-28T09:05:08;94604.69;;;37.55;26.06
6090;BME280;3073;42.660;23.316;2023-07-28T09:07:43;94603.03;;;38.27;25.02
6090;BME280;3073;42.660;23.316;2023-07-28T09:10:11;94592.53;;;35.21;28.01
6090;BME280;3073;42.660;23.316;2023-07-28T09:12:44;94598.59;;;36.44;27.44
6090;BME280;3073;42.660;23.316;2023-07-28T09:15:12;94593.75;;;38.16;25.90
6090;BME280;3073;42.660;23.316;2023-07-28T09:17:42;94574.94;;;38.78;24.92
6090;BME280;3073;42.660;23.316;2023-07-28T09:20:14;94573.78;;;38.79;24.87
6090;BME280;3073;42.660;23.316;2023-07-28T09:22:41;94567.91;;;38.88;25.05
6090;BME280;3073;42.660;23.316;2023-07-28T09:25:14;94566.66;;;38.92;24.70
6090;BME280;3073;42.660;23.316;2023-07-28T09:27:49;94567.41;;;39.74;24.61
6090;BME280;3073;42.660;23.316;2023-07-28T09:30:16;94562.41;;;39.76;24.80
6090;BME280;3073;42.660;23.316;2023-07-28T09:32:47;94559.81;;;39.07;25.16
6090;BME280;3073;42.660;23.316;2023-07-28T09:35:14;94554.31;;;40.62;23.69
6090;BME280;3073;42.660;23.316;2023-07-28T09:37:43;94559.28;;;39.61;24.46
6090;BME280;3073;42.660;23.316;2023-07-28T09:40:11;94551.97;;;40.77;23.60
6090;BME280;3073;42.660;23.316;2023-07-28T09:42:40;94541.53;;;41.76;22.86
6090;BME280;3073;42.660;23.316;2023-07-28T09:45:08;94544.72;;;42.05;22.36
6090;BME280;3073;42.660;23.316;2023-07-28T09:47:37;94537.59;;;39.75;23.58
6090;BME280;3073;42.660;23.316;2023-07-28T09:50:06;94532.13;;;38.85;24.17
6090;BME280;3073;42.660;23.316;2023-07-28T09:52:36;94527.28;;;39.12;24.45
6090;BME280;3073;42.660;23.316;2023-07-28T09:55:06;94532.78;;;36.51;26.30
6090;BME280;3073;42.660;23.316;2023-07-28T09:57:36;94531.19;;;38.00;25.94
6090;BME280;3073;42.660;23.316;2023-07-28T10:00:08;94526.66;;;38.37;24.56
6090;BME280;3073;42.660;23.316;2023-07-28T10:02:39;94526.41;;;38.11;24.87
6090;BME280;3073;42.660;23.316;2023-07-28T10:05:07;94520.56;;;39.69;24.82
6090;BME280;3073;42.660;23.316;2023-07-28T10:07:38;94515.53;;;39.71;23.41
6090;BME280;3073;42.660;23.316;2023-07-28T10:10:07;94520.56;;;40.10;23.48
6090;BME280;3073;42.660;23.316;2023-07-28T10:12:40;94523.69;;;41.01;23.05
6090;BME280;3073;42.660;23.316;2023-07-28T10:15:12;94529.06;;;41.48;22.44
6090;BME280;3073;42.660;23.316;2023-07-28T10:17:44;94517.59;;;42.03;21.45
6090;BME280;3073;42.660;23.316;2023-07-28T10:20:34;94517.88;;;41.62;22.06
6090;BME280;3073;42.660;23.316;2023-07-28T10:23:06;94509.41;;;42.29;21.63
6090;BME280;3073;42.660;23.316;2023-07-28T10:25:34;94510.91;;;42.30;22.03
6090;BME280;3073;42.660;23.316;2023-07-28T10:28:02;94509.31;;;42.72;22.01
6090;BME280;3073;42.660;23.316;2023-07-28T10:30:34;94505.69;;;38.39;24.30
6090;BME280;3073;42.660;23.316;2023-07-28T10:33:02;94504.75;;;38.81;23.59
6090;BME280;3073;42.660;23.316;2023-07-28T10:35:29;94502.06;;;39.46;23.24
6090;BME280;3073;42.660;23.316;2023-07-28T10:37:58;94494.38;;;41.32;22.03
6090;BME280;3073;42.660;23.316;2023-07-28T10:40:29;94497.44;;;40.83;22.71
6090;BME280;3073;42.660;23.316;2023-07-28T10:42:57;94490.22;;;41.18;22.72
6090;BME280;3073;42.660;23.316;2023-07-28T10:45:25;94488.63;;;41.55;22.23
6090;BME280;3073;42.660;23.316;2023-07-28T10:47:55;94494.50;;;41.84;21.99
6090;BME280;3073;42.660;23.316;2023-07-28T10:50:23;94497.44;;;41.08;22.38
6090;BME280;3073;42.660;23.316;2023-07-28T10:52:50;94487.06;;;41.45;22.16
6090;BME280;3073;42.660;23.316;2023-07-28T10:55:20;94481.94;;;41.25;21.88
6090;BME280;3073;42.660;23.316;2023-07-28T10:57:48;94481.66;;;43.02;20.92
6090;BME280;3073;42.660;23.316;2023-07-28T11:00:17;94477.00;;;42.54;21.74
6090;BME280;3073;42.660;23.316;2023-07-28T11:02:44;94471.25;;;41.59;21.37
6090;BME280;3073;42.660;23.316;2023-07-28T11:05:19;94473.81;;;43.44;20.62
6090;BME280;3073;42.660;23.316;2023-07-28T11:07:47;94456.63;;;43.51;20.52
6090;BME280;3073;42.660;23.316;2023-07-28T11:10:14;94462.63;;;42.70;20.74
6090;BME280;3073;42.660;23.316;2023-07-28T11:12:42;94454.50;;;43.64;20.39
6090;BME280;3073;42.660;23.316;2023-07-28T11:15:10;94456.91;;;43.35;20.89
6090;BME280;3073;42.660;23.316;2023-07-28T11:17:38;94455.00;;;42.28;20.73
6090;BME280;3073;42.660;23.316;2023-07-28T11:20:06;94446.16;;;42.58;20.86
6090;BME280;3073;42.660;23.316;2023-07-28T11:22:42;94439.81;;;41.82;20.94
6090;BME280;3073;42.660;23.316;2023-07-28T11:25:10;94438.38;;;41.12;21.86
6090;BME280;3073;42.660;23.316;2023-07-28T11:27:38;94429.38;;;42.05;21.90
6090;BME280;3073;42.660;23.316;2023-07-28T11:30:07;94429.47;;;41.71;21.75
6090;BME280;3073;42.660;23.316;2023-07-28T11:32:35;94426.22;;;41.54;21.93
6090;BME280;3073;42.660;23.316;2023-07-28T11:35:04;94421.63;;;41.55;21.42
6090;BME280;3073;42.660;23.316;2023-07-28T11:37:32;94419.50;;;41.93;21.33
6090;BME280;3073;42.660;23.316;2023-07-28T11:40:03;94425.25;;;41.83;21.28
6090;BME280;3073;42.660;23.316;2023-07-28T11:42:32;94424.34;;;43.24;20.52
6090;BME280;3073;42.660;23.316;2023-07-28T11:44:59;94417.25;;;41.70;20.42
6090;BME280;3073;42.660;23.316;2023-07-28T11:47:26;94409.06;;;37.95;22.84
6090;BME280;3073;42.660;23.316;2023-07-28T11:49:53;94402.63;;;36.41;24.13
6090;BME280;3073;42.660;23.316;2023-07-28T11:52:20;94419.53;;;35.33;25.25
6090;BME280;3073;42.660;23.316;2023-07-28T11:54:47;94416.06;;;37.27;24.25
6090;BME280;3073;42.660;23.316;2023-07-28T11:57:16;94414.59;;;35.69;25.41
6090;BME280;3073;42.660;23.316;2023-07-28T11:59:43;94419.34;;;36.41;25.00
6090;BME280;3073;42.660;23.316;2023-07-28T12:02:10;94415.66;;;35.00;25.84
6090;BME280;3073;42.660;23.316;2023-07-28T12:04:38;94415.06;;;37.40;24.68
6090;BME280;3073;42.660;23.316;2023-07-28T12:07:07;94405.47;;;39.02;23.03
6090;BME280;3073;42.660;23.316;2023-07-28T12:09:47;94402.84;;;39.15;22.54
6090;BME280;3073;42.660;23.316;2023-07-28T12:12:19;94397.53;;;37.43;24.61
6090;BME280;3073;42.660;23.316;2023-07-28T12:14:46;94407.72;;;34.96;26.19
6090;BME280;3073;42.660;23.316;2023-07-28T12:17:14;94392.00;;;34.75;25.85
6090;BME280;3073;42.660;23.316;2023-07-28T12:19:41;94389.88;;;33.94;26.73
6090;BME280;3073;42.660;23.316;2023-07-28T12:22:09;94390.38;;;35.63;26.10
6090;BME280;3073;42.660;23.316;2023-07-28T12:24:37;94382.81;;;37.94;24.72
6090;BME280;3073;42.660;23.316;2023-07-28T12:27:05;94395.03;;;37.91;24.42
6090;BME280;3073;42.660;23.316;2023-07-28T12:29:33;94380.16;;;37.35;24.87
6090;BME280;3073;42.660;23.316;2023-07-28T12:32:00;94379.53;;;35.09;26.84
6090;BME280;3073;42.660;23.316;2023-07-28T12:34:27;94379.97;;;36.06;26.32
6090;BME280;3073;42.660;23.316;2023-07-28T12:36:54;94376.00;;;36.18;26.22
6090;BME280;3073;42.660;23.316;2023-07-28T12:39:20;94377.41;;;35.35;27.45
6090;BME280;3073;42.660;23.316;2023-07-28T12:41:47;94374.88;;;35.88;26.40
6090;BME280;3073;42.660;23.316;2023-07-28T12:44:14;94369.75;;;37.99;25.08
6090;BME280;3073;42.660;23.316;2023-07-28T12:46:42;94365.50;;;36.60;26.02
6090;BME280;3073;42.660;23.316;2023-07-28T12:49:09;94359.06;;;36.35;26.40
6090;BME280;3073;42.660;23.316;2023-07-28T12:51:36;94361.22;;;34.85;27.62
6090;BME280;3073;42.660;23.316;2023-07-28T12:54:02;94364.06;;;34.16;28.43
6090;BME280;3073;42.660;23.316;2023-07-28T12:56:30;94356.09;;;36.02;26.86
6090;BME280;3073;42.660;23.316;2023-07-28T12:58:57;94354.47;;;35.51;27.83
6090;BME280;3073;42.660;23.316;2023-07-28T13:01:24;94353.28;;;34.85;28.00
6090;BME280;3073;42.660;23.316;2023-07-28T13:03:52;94357.53;;;35.80;27.31
6090;BME280;3073;42.660;23.316;2023-07-28T13:06:19;94358.06;;;36.25;27.37
6090;BME280;3073;42.660;23.316;2023-07-28T13:08:46;94348.53;;;37.76;25.50
6090;BME280;3073;42.660;23.316;2023-07-28T13:11:13;94350.28;;;38.83;25.53
6090;BME280;3073;42.660;23.316;2023-07-28T13:13:40;94333.16;;;39.26;25.70